Time;durP1;ratioP1;P1;durP2;ratioP2;P2;SDS_P1;SDS_P2;PMS_P1;PMS_P2;Temp;Humidity;BMP_temperature;BMP_pressure;BME280_temperature;BME280_humidity;BME280_pressure;Samples;Min_cycle;Max_cycle;Signal;HPM_P1;HPM_P2
2022/07/08 00:01:06;;;;;;;3.47;1.00;;;;;;;24.92;44.18;101383.63;5032349;28;20029;-58
2022/07/08 00:03:32;;;;;;;3.05;0.75;;;;;;;25.00;44.98;101383.03;5032559;28;20421;-58
2022/07/08 00:05:58;;;;;;;4.32;1.00;;;;;;;25.30;44.40;101380.25;5032356;28;20035;-58
2022/07/08 00:08:26;;;;;;;3.40;1.00;;;;;;;25.12;44.45;101390.88;5014394;28;20385;-58
2022/07/08 00:10:53;;;;;;;2.85;0.85;;;;;;;24.91;44.37;101395.69;5032114;28;20100;-57
2022/07/08 00:13:19;;;;;;;4.93;0.80;;;;;;;25.16;44.24;101388.38;5032685;28;20026;-58
2022/07/08 00:15:46;;;;;;;4.90;1.33;;;;;;;24.87;43.96;101394.63;5031709;28;20029;-57
2022/07/08 00:18:13;;;;;;;3.50;1.55;;;;;;;24.89;44.28;101386.97;5032089;28;20025;-58
2022/07/08 00:20:39;;;;;;;5.80;1.33;;;;;;;24.92;44.17;101382.81;5022943;28;20036;-58
2022/07/08 00:23:05;;;;;;;3.17;0.80;;;;;;;25.18;44.36;101388.91;5012509;28;20084;-58
2022/07/08 00:25:32;;;;;;;2.42;0.80;;;;;;;24.63;44.79;101393.78;4978458;28;20359;-58
2022/07/08 00:27:58;;;;;;;5.35;1.20;;;;;;;25.13;45.38;101386.22;5011878;28;20084;-59
2022/07/08 00:30:24;;;;;;;4.72;1.13;;;;;;;24.86;44.36;101387.53;5011771;28;20034;-58
2022/07/08 00:32:51;;;;;;;2.25;0.80;;;;;;;25.20;44.17;101375.72;5012182;28;20026;-58
2022/07/08 00:35:17;;;;;;;3.10;1.02;;;;;;;25.06;44.30;101370.13;5011963;28;20022;-58
2022/07/08 00:37:43;;;;;;;3.03;0.80;;;;;;;25.11;44.13;101370.06;5011513;28;20084;-58
2022/07/08 00:40:11;;;;;;;4.03;0.80;;;;;;;24.63;44.51;101367.22;5011736;28;20076;-58
2022/07/08 00:42:38;;;;;;;3.30;0.80;;;;;;;24.94;44.30;101373.22;5011814;28;20045;-58
2022/07/08 00:45:05;;;;;;;5.18;1.15;;;;;;;25.03;44.33;101357.78;5011814;28;20109;-58
2022/07/08 00:47:31;;;;;;;2.75;0.93;;;;;;;25.25;43.90;101364.69;5011807;28;20279;-58
2022/07/08 00:49:57;;;;;;;2.42;0.95;;;;;;;24.68;44.10;101366.38;4977957;28;20034;-59
2022/07/08 00:52:24;;;;;;;3.38;0.88;;;;;;;24.44;44.87;101358.09;5011981;28;20359;-59
2022/07/08 00:54:51;;;;;;;4.45;1.02;;;;;;;24.62;44.78;101362.03;5011669;28;20057;-58
2022/07/08 00:57:18;;;;;;;4.28;1.10;;;;;;;24.77;45.06;101361.09;5011596;28;20033;-58
2022/07/08 00:59:44;;;;;;;3.00;0.95;;;;;;;24.22;45.67;101367.53;5011638;28;20084;-58
2022/07/08 01:02:10;;;;;;;3.78;1.00;;;;;;;23.61;46.79;101361.59;5011714;28;20025;-58
2022/07/08 01:04:37;;;;;;;4.97;1.40;;;;;;;23.42;46.87;101358.63;5011736;28;20018;-58
2022/07/08 01:07:06;;;;;;;4.55;1.05;;;;;;;23.34;47.24;101353.78;5011629;28;20076;-58
2022/07/08 01:09:32;;;;;;;6.55;0.98;;;;;;;23.28;47.47;101358.44;5011575;28;20509;-58
2022/07/08 01:11:59;;;;;;;3.97;1.05;;;;;;;23.52;47.41;101355.88;5011503;28;20128;-58
2022/07/08 01:14:26;;;;;;;4.97;1.17;;;;;;;23.32;47.53;101353.22;5011179;28;20025;-58
2022/07/08 01:16:52;;;;;;;3.22;1.40;;;;;;;23.68;47.36;101353.91;5011278;28;20038;-58
2022/07/08 01:19:18;;;;;;;6.28;1.00;;;;;;;23.62;46.39;101358.59;5011887;28;20041;-59
2022/07/08 01:21:45;;;;;;;2.83;0.80;;;;;;;23.53;46.31;101353.94;5011854;28;20026;-59
2022/07/08 01:24:11;;;;;;;5.10;0.90;;;;;;;23.59;46.41;101359.09;4993821;28;20033;-59
2022/07/08 01:26:37;;;;;;;2.88;0.90;;;;;;;23.51;46.54;101350.69;5009789;28;20021;-58
2022/07/08 01:29:04;;;;;;;2.72;0.80;;;;;;;23.51;46.31;101356.16;5014212;28;20022;-58
2022/07/08 01:31:30;;;;;;;3.40;0.63;;;;;;;23.50;46.18;101349.06;5015279;28;20363;-59
2022/07/08 01:33:56;;;;;;;3.22;0.70;;;;;;;23.80;45.55;101348.94;5015230;28;20026;-59
2022/07/08 01:36:22;;;;;;;3.70;0.95;;;;;;;23.49;45.52;101347.44;5014714;28;20096;-58
2022/07/08 01:38:49;;;;;;;2.35;0.70;;;;;;;23.71;45.66;101347.91;4997416;28;20103;-59
2022/07/08 01:41:15;;;;;;;2.03;0.60;;;;;;;23.97;44.69;101346.63;5014956;28;20312;-58
2022/07/08 01:43:41;;;;;;;2.95;0.70;;;;;;;24.29;44.58;101355.44;5015194;28;20018;-59
2022/07/08 01:46:07;;;;;;;1.92;0.88;;;;;;;24.53;44.25;101358.28;5014836;28;20028;-58
2022/07/08 01:48:34;;;;;;;4.03;0.55;;;;;;;24.31;42.69;101356.78;5014896;28;20113;-59
2022/07/08 01:51:00;;;;;;;3.83;0.47;;;;;;;24.43;39.49;101357.28;5024443;28;20077;-57
2022/07/08 01:53:26;;;;;;;2.05;0.25;;;;;;;24.47;39.12;101358.31;5034760;28;20367;-57
2022/07/08 01:55:52;;;;;;;2.15;0.65;;;;;;;24.84;37.65;101361.56;5034336;28;20021;-57
2022/07/08 01:58:18;;;;;;;0.30;0.20;;;;;;;24.91;37.52;101357.38;5034639;28;20025;-57
2022/07/08 02:00:44;;;;;;;1.83;0.28;;;;;;;24.62;38.54;101359.31;5034655;28;20040;-57
2022/07/08 02:03:11;;;;;;;1.48;0.25;;;;;;;24.87;38.72;101348.09;5034945;28;20051;-58
2022/07/08 02:05:37;;;;;;;0.85;0.30;;;;;;;25.26;37.10;101350.72;5033948;28;20025;-58
2022/07/08 02:08:03;;;;;;;1.40;0.22;;;;;;;25.11;38.48;101350.09;5032179;28;20087;-57
2022/07/08 02:12:18;;;;;;;0.63;0.30;;;;;;;25.15;36.41;101345.63;5016098;28;20030;-57
2022/07/08 02:13:18;;;;;;;0.98;0.30;;;;;;;25.08;36.75;101345.97;5018590;28;20060;-57
2022/07/08 02:15:44;;;;;;;0.38;0.10;;;;;;;25.31;36.43;101344.34;5027754;28;20032;-57
2022/07/08 02:18:11;;;;;;;0.55;0.30;;;;;;;25.63;36.11;101351.06;5033774;28;20053;-57
2022/07/08 02:20:37;;;;;;;1.27;0.40;;;;;;;25.69;35.75;101353.44;5031376;28;20037;-57
2022/07/08 02:23:04;;;;;;;2.58;0.30;;;;;;;25.50;36.06;101355.34;5033998;28;20021;-57
2022/07/08 02:25:32;;;;;;;0.90;0.30;;;;;;;25.40;36.41;101356.31;5033744;28;20046;-57
2022/07/08 02:27:59;;;;;;;0.80;0.40;;;;;;;25.45;35.91;101367.19;5033894;28;20037;-57
2022/07/08 02:30:25;;;;;;;1.20;0.30;;;;;;;25.42;36.54;101367.78;5037027;28;20041;-57
2022/07/08 02:32:51;;;;;;;0.63;0.30;;;;;;;25.02;36.55;101355.34;5032269;28;20033;-57
2022/07/08 02:35:17;;;;;;;0.88;0.38;;;;;;;25.32;36.38;101362.44;5033694;28;20034;-59
2022/07/08 02:37:43;;;;;;;0.65;0.30;;;;;;;25.71;36.47;101364.94;5033471;28;20551;-59
2022/07/08 02:40:10;;;;;;;1.05;0.20;;;;;;;25.52;36.10;101366.84;5033586;28;20040;-59
2022/07/08 02:42:36;;;;;;;1.10;0.20;;;;;;;25.23;36.74;101358.69;5033687;28;20377;-59
2022/07/08 02:45:03;;;;;;;0.73;0.30;;;;;;;25.57;36.10;101364.03;5033436;28;20029;-59
2022/07/08 02:47:29;;;;;;;0.20;0.20;;;;;;;25.44;35.71;101364.75;5033379;28;20099;-59
2022/07/08 02:49:55;;;;;;;0.30;0.20;;;;;;;25.30;35.87;101364.63;5033391;28;20033;-58
2022/07/08 02:52:21;;;;;;;0.22;0.20;;;;;;;25.07;36.11;101359.97;5033341;28;20029;-58
2022/07/08 02:54:47;;;;;;;3.05;0.30;;;;;;;24.67;37.10;101362.81;5027406;28;20037;-58
2022/07/08 02:57:14;;;;;;;0.90;0.20;;;;;;;24.09;38.19;101368.16;5028604;28;20030;-58
2022/07/08 02:59:40;;;;;;;0.88;0.50;;;;;;;24.30;38.02;101376.22;5024026;28;20078;-58
2022/07/08 03:02:06;;;;;;;0.60;0.20;;;;;;;23.93;38.77;101367.44;5024440;28;20025;-58
2022/07/08 03:04:32;;;;;;;1.35;0.40;;;;;;;23.69;39.30;101374.69;5022073;28;20026;-58
2022/07/08 03:06:58;;;;;;;0.60;0.40;;;;;;;23.28;40.32;101363.91;5035252;28;20045;-58
2022/07/08 03:09:25;;;;;;;2.72;0.30;;;;;;;23.07;40.70;101371.31;5027758;28;20037;-59
2022/07/08 03:11:51;;;;;;;0.55;0.20;;;;;;;23.09;41.06;101371.03;5033298;28;20108;-58
2022/07/08 03:14:17;;;;;;;0.75;0.30;;;;;;;22.95;40.99;101370.81;5032083;28;20092;-58
2022/07/08 03:16:45;;;;;;;1.40;0.30;;;;;;;22.71;41.46;101378.72;5047247;28;20049;-59
2022/07/08 03:19:12;;;;;;;0.50;0.30;;;;;;;22.40;41.84;101376.00;5032690;28;20033;-58
2022/07/08 03:21:38;;;;;;;0.30;0.30;;;;;;;22.24;42.50;101377.06;5032662;28;20381;-59
2022/07/08 03:24:05;;;;;;;1.52;0.32;;;;;;;22.15;43.10;101373.22;5032665;28;20025;-58
2022/07/08 03:26:31;;;;;;;1.58;0.30;;;;;;;22.02;43.25;101380.00;5032498;28;20385;-58
2022/07/08 03:28:57;;;;;;;0.40;0.20;;;;;;;21.88;43.49;101385.16;5031172;28;20033;-58
2022/07/08 03:31:23;;;;;;;0.68;0.35;;;;;;;22.00;43.56;101384.09;5013379;28;20033;-57
2022/07/08 03:33:50;;;;;;;1.73;0.40;;;;;;;21.94;44.02;101390.63;5031177;28;20025;-57
2022/07/08 03:36:17;;;;;;;2.03;0.50;;;;;;;21.80;43.84;101387.56;5010617;28;20065;-57
2022/07/08 03:38:43;;;;;;;1.10;0.20;;;;;;;21.62;44.94;101380.69;5023269;28;20032;-58
2022/07/08 03:41:21;;;;;;;2.88;0.38;;;;;;;21.47;44.97;101381.44;5013187;28;20034;-58
2022/07/08 03:43:53;;;;;;;3.50;0.88;;;;;;;21.39;48.63;101386.59;5017718;28;20030;-58
2022/07/08 03:46:20;;;;;;;1.88;0.80;;;;;;;21.48;48.00;101384.97;5012818;28;20053;-58
2022/07/08 03:48:47;;;;;;;9.73;1.38;;;;;;;21.26;49.12;101385.94;5012208;28;20033;-58
2022/07/08 03:51:14;;;;;;;2.38;0.73;;;;;;;21.26;46.44;101388.66;5016152;28;20497;-57
2022/07/08 03:53:40;;;;;;;0.82;0.50;;;;;;;21.22;46.24;101398.47;5032417;28;20037;-58
2022/07/08 03:56:07;;;;;;;0.50;0.32;;;;;;;21.21;46.11;101395.97;5029480;28;20398;-58
2022/07/08 03:58:35;;;;;;;0.50;0.40;;;;;;;21.06;46.45;101392.09;5012417;28;20025;-58
2022/07/08 04:01:02;;;;;;;5.15;0.95;;;;;;;21.08;48.78;101397.25;5028897;28;20025;-58
2022/07/08 04:03:28;;;;;;;5.18;1.20;;;;;;;20.72;51.53;101407.09;5051950;28;20032;-58
2022/07/08 04:05:54;;;;;;;5.95;1.52;;;;;;;20.60;52.87;101411.88;5051972;28;20473;-59
2022/07/08 04:08:21;;;;;;;4.70;1.23;;;;;;;20.43;54.36;101406.50;5046340;28;20025;-58
2022/07/08 04:10:47;;;;;;;4.43;1.25;;;;;;;20.39;54.48;101408.13;5037743;23;20434;-58
2022/07/08 04:13:13;;;;;;;3.97;1.20;;;;;;;20.55;54.01;101410.75;5031730;28;20044;-58
2022/07/08 04:15:39;;;;;;;8.23;1.77;;;;;;;20.26;53.88;101407.44;5035342;28;20060;-58
2022/07/08 04:18:05;;;;;;;5.95;1.60;;;;;;;20.04;55.24;101417.53;5011547;28;20026;-58
2022/07/08 04:20:32;;;;;;;5.43;1.10;;;;;;;19.89;55.83;101418.19;5011559;28;20053;-58
2022/07/08 04:22:58;;;;;;;3.58;1.33;;;;;;;19.70;56.49;101423.13;5017128;28;20025;-59
2022/07/08 04:25:24;;;;;;;4.28;1.10;;;;;;;19.67;56.44;101417.41;5031457;28;20026;-56
2022/07/08 04:27:50;;;;;;;3.53;1.20;;;;;;;19.57;56.81;101415.31;5028788;28;20033;-56
2022/07/08 04:30:17;;;;;;;6.43;1.40;;;;;;;19.26;57.75;101420.31;5019484;28;20030;-57
2022/07/08 04:32:43;;;;;;;6.10;1.30;;;;;;;19.36;57.28;101416.13;5027964;28;20076;-57
2022/07/08 04:35:09;;;;;;;4.80;1.60;;;;;;;19.32;57.44;101425.84;5028924;28;20497;-57
2022/07/08 04:37:35;;;;;;;6.05;1.70;;;;;;;18.77;59.68;101423.91;5019290;28;20109;-57
2022/07/08 04:40:02;;;;;;;7.57;1.23;;;;;;;18.83;59.51;101425.66;5031464;28;20033;-57
2022/07/08 04:42:28;;;;;;;7.30;1.55;;;;;;;18.78;59.91;101429.09;5031525;28;20037;-58
2022/07/08 04:44:54;;;;;;;8.70;1.58;;;;;;;18.88;59.47;101425.75;5030658;28;20481;-57
2022/07/08 04:47:20;;;;;;;4.95;1.42;;;;;;;18.90;60.08;101423.59;5026785;28;20078;-58
2022/07/08 04:49:46;;;;;;;7.70;1.95;;;;;;;18.62;60.83;101428.00;5026908;28;20040;-58
2022/07/08 04:52:13;;;;;;;5.18;1.27;;;;;;;18.28;62.31;101424.41;5050334;28;20078;-57
2022/07/08 04:54:39;;;;;;;6.72;1.45;;;;;;;18.39;62.03;101426.22;5051705;28;20473;-58
2022/07/08 04:57:08;;;;;;;5.72;1.50;;;;;;;18.24;62.81;101419.72;5051196;28;20499;-57
2022/07/08 04:59:34;;;;;;;5.20;1.25;;;;;;;18.00;63.44;101427.94;5043440;28;20083;-58
2022/07/08 05:02:01;;;;;;;4.90;1.58;;;;;;;17.80;64.16;101431.03;5031544;28;20037;-57
2022/07/08 05:04:27;;;;;;;7.90;1.50;;;;;;;17.76;64.37;101431.75;5027646;28;20014;-57
2022/07/08 05:06:53;;;;;;;4.82;1.27;;;;;;;17.74;64.69;101432.00;5015773;28;20037;-57
2022/07/08 05:09:19;;;;;;;9.23;2.10;;;;;;;17.65;64.96;101436.09;5015416;28;20386;-57
2022/07/08 05:11:46;;;;;;;6.25;1.70;;;;;;;17.41;65.48;101438.03;5015384;28;20049;-57
2022/07/08 05:14:13;;;;;;;8.15;1.80;;;;;;;17.42;65.68;101442.38;5015630;28;20029;-57
2022/07/08 05:16:40;;;;;;;8.73;1.70;;;;;;;17.47;65.25;101445.19;5023027;28;20021;-57
2022/07/08 05:19:08;;;;;;;5.90;1.50;;;;;;;17.50;65.58;101444.75;5034880;28;20025;-57
2022/07/08 05:21:36;;;;;;;5.38;2.00;;;;;;;17.61;65.25;101446.59;5035082;28;20033;-57
2022/07/08 05:24:07;;;;;;;4.88;1.45;;;;;;;17.35;65.93;101441.69;5017816;28;20385;-57
2022/07/08 05:26:33;;;;;;;3.72;1.27;;;;;;;17.35;66.01;101438.97;5044741;28;20025;-57
2022/07/08 05:29:00;;;;;;;6.28;1.48;;;;;;;17.38;65.97;101446.63;5037998;28;20048;-57
2022/07/08 05:31:27;;;;;;;5.82;1.63;;;;;;;17.36;66.25;101457.69;5033725;28;20036;-58
2022/07/08 05:33:53;;;;;;;6.93;1.83;;;;;;;17.37;65.88;101455.78;5033911;28;20025;-57
2022/07/08 05:36:20;;;;;;;4.90;1.63;;;;;;;17.26;66.13;101451.22;5033707;28;20026;-57
2022/07/08 05:38:46;;;;;;;5.38;1.30;;;;;;;17.25;66.50;101449.56;5034851;28;20021;-57
2022/07/08 05:41:12;;;;;;;4.28;1.30;;;;;;;17.25;66.09;101446.84;5024920;28;20022;-57
2022/07/08 05:43:38;;;;;;;7.55;1.60;;;;;;;17.10;66.85;101448.16;5014796;28;20040;-57
2022/07/08 05:46:05;;;;;;;14.48;2.05;;;;;;;17.13;66.93;101449.56;5022235;28;20113;-57
2022/07/08 05:48:31;;;;;;;9.90;1.33;;;;;;;16.96;67.30;101441.31;5034296;28;20053;-57
2022/07/08 05:50:57;;;;;;;6.15;1.88;;;;;;;17.06;66.96;101452.38;5033774;28;20418;-57
2022/07/08 05:53:24;;;;;;;6.85;1.48;;;;;;;16.99;66.92;101440.88;5032732;28;20034;-57
2022/07/08 05:55:50;;;;;;;5.95;1.70;;;;;;;16.68;67.86;101446.53;5033038;28;20587;-57
2022/07/08 05:58:16;;;;;;;6.10;2.03;;;;;;;16.82;67.52;101442.59;5034489;28;20030;-57
2022/07/08 06:00:42;;;;;;;9.05;1.83;;;;;;;16.78;67.65;101449.53;5033521;28;20030;-57
2022/07/08 06:03:09;;;;;;;6.78;1.55;;;;;;;16.68;68.22;101441.94;5034271;28;20025;-57
2022/07/08 06:05:35;;;;;;;6.60;1.88;;;;;;;16.60;68.62;101437.72;5033474;28;20025;-57
2022/07/08 06:08:01;;;;;;;6.10;1.88;;;;;;;16.63;68.75;101439.94;5034037;28;20029;-57
2022/07/08 06:10:27;;;;;;;6.10;1.85;;;;;;;16.50;69.06;101434.75;5033119;28;20033;-57
2022/07/08 06:12:54;;;;;;;8.25;1.58;;;;;;;16.50;68.88;101429.34;5034425;28;20434;-57
2022/07/08 06:15:21;;;;;;;4.30;1.77;;;;;;;16.47;68.64;101437.91;5026129;28;20060;-57
2022/07/08 06:17:47;;;;;;;6.85;1.58;;;;;;;16.42;69.15;101429.66;5033640;28;20025;-57
2022/07/08 06:20:14;;;;;;;4.18;1.75;;;;;;;16.52;68.79;101432.63;5032905;28;20091;-57
2022/07/08 06:22:41;;;;;;;6.90;1.50;;;;;;;16.43;69.22;101422.38;5034216;28;20044;-58
2022/07/08 06:25:08;;;;;;;9.32;2.08;;;;;;;16.46;68.95;101422.75;5025809;28;20026;-57
2022/07/08 06:27:34;;;;;;;7.68;1.92;;;;;;;16.51;68.93;101417.47;5020048;28;20036;-57
2022/07/08 06:30:00;;;;;;;5.63;1.50;;;;;;;16.43;69.32;101428.59;5033725;28;20033;-57
2022/07/08 06:32:26;;;;;;;8.50;1.65;;;;;;;16.42;69.60;101426.13;5006199;28;20033;-57
2022/07/08 06:34:53;;;;;;;4.30;1.65;;;;;;;16.52;69.43;101424.53;5033849;28;20026;-57
2022/07/08 06:37:19;;;;;;;5.80;1.40;;;;;;;16.30;70.07;101424.22;5032554;28;20113;-57
2022/07/08 06:39:45;;;;;;;7.45;1.70;;;;;;;16.46;69.72;101428.16;5033737;28;20079;-57
2022/07/08 06:42:13;;;;;;;4.57;1.30;;;;;;;16.42;69.61;101426.13;5031803;28;20532;-57
2022/07/08 06:44:39;;;;;;;4.57;1.63;;;;;;;16.33;70.13;101422.94;5026058;28;20025;-57
2022/07/08 06:47:06;;;;;;;4.72;1.25;;;;;;;16.28;70.46;101425.50;5033097;28;20030;-57
2022/07/08 06:49:32;;;;;;;4.22;1.27;;;;;;;16.37;69.70;101435.75;5032215;28;20037;-57
2022/07/08 06:51:58;;;;;;;4.70;1.20;;;;;;;16.14;70.22;101437.53;5033602;28;20108;-57
2022/07/08 06:54:36;;;;;;;5.30;1.10;;;;;;;16.30;69.61;101434.19;5032308;28;20076;-57
2022/07/08 06:57:09;;;;;;;4.32;1.75;;;;;;;16.24;69.17;101437.81;5032152;28;20029;-57
2022/07/08 06:59:37;;;;;;;13.90;2.00;;;;;;;16.03;69.68;101439.13;5033247;28;20021;-57
2022/07/08 07:02:04;;;;;;;5.60;1.50;;;;;;;16.13;69.28;101444.00;5033257;28;20022;-57
2022/07/08 07:04:31;;;;;;;6.07;1.50;;;;;;;16.01;69.63;101442.06;5033254;28;20105;-57
2022/07/08 07:06:57;;;;;;;4.53;1.48;;;;;;;16.05;69.45;101448.66;5042245;28;20033;-57
2022/07/08 07:09:23;;;;;;;4.78;1.45;;;;;;;16.01;69.41;101443.94;5052970;28;20028;-57
2022/07/08 07:11:50;;;;;;;3.28;1.05;;;;;;;16.19;68.62;101443.09;5052781;28;20045;-57
2022/07/08 07:14:16;;;;;;;5.10;1.42;;;;;;;16.10;68.71;101446.13;5038623;28;20025;-57
2022/07/08 07:16:43;;;;;;;5.63;1.30;;;;;;;16.20;68.34;101442.84;5032648;28;20362;-57
2022/07/08 07:19:09;;;;;;;3.03;1.52;;;;;;;16.11;68.60;101444.22;5032760;28;20363;-57
2022/07/08 07:21:35;;;;;;;6.57;1.52;;;;;;;15.96;69.22;101436.53;5032950;28;20032;-57
2022/07/08 07:24:01;;;;;;;5.68;1.30;;;;;;;16.04;69.03;101432.66;5032885;28;20489;-57
2022/07/08 07:26:28;;;;;;;7.07;1.90;;;;;;;16.13;68.81;101430.50;5031590;28;20082;-57
2022/07/08 07:28:54;;;;;;;5.18;1.65;;;;;;;16.19;68.76;101432.28;5032540;28;20025;-57
2022/07/08 07:31:20;;;;;;;5.57;1.58;;;;;;;16.19;68.68;101437.69;5032765;28;20482;-57
2022/07/08 07:33:47;;;;;;;6.95;1.63;;;;;;;16.16;68.61;101427.31;5032728;28;20037;-57
2022/07/08 07:36:13;;;;;;;4.60;1.60;;;;;;;16.02;69.37;101438.31;5032328;28;20025;-57
2022/07/08 07:38:39;;;;;;;7.55;2.03;;;;;;;15.85;70.11;101429.19;5032484;28;20064;-57
2022/07/08 07:41:06;;;;;;;6.13;1.48;;;;;;;15.77;70.78;101430.31;5032273;28;20030;-57
2022/07/08 07:43:32;;;;;;;3.90;1.65;;;;;;;15.77;70.70;101434.91;5032399;28;20025;-57
2022/07/08 07:45:58;;;;;;;4.95;2.03;;;;;;;15.87;70.66;101437.88;5032036;28;20030;-57
2022/07/08 07:48:24;;;;;;;4.22;1.58;;;;;;;15.73;71.08;101439.09;5032631;28;20115;-57
2022/07/08 07:50:51;;;;;;;5.35;1.90;;;;;;;15.80;70.89;101435.25;5031994;28;20030;-57
2022/07/08 07:53:17;;;;;;;5.10;1.65;;;;;;;15.72;71.50;101429.34;5035632;28;20056;-57
2022/07/08 07:55:43;;;;;;;4.13;1.35;;;;;;;15.90;70.79;101431.22;5031451;28;20021;-57
2022/07/08 07:58:09;;;;;;;6.43;1.50;;;;;;;15.86;71.00;101427.31;5031787;28;20036;-57
2022/07/08 08:00:36;;;;;;;8.32;1.77;;;;;;;15.69;71.80;101427.09;5031462;28;20052;-58
2022/07/08 08:03:03;;;;;;;7.45;1.85;;;;;;;15.83;71.55;101412.41;5031062;28;20029;-56
2022/07/08 08:05:29;;;;;;;5.13;1.60;;;;;;;15.81;71.61;101422.59;5032043;28;20032;-57
2022/07/08 08:07:55;;;;;;;7.35;1.85;;;;;;;15.81;71.48;101409.09;5031062;28;20076;-57
2022/07/08 08:10:22;;;;;;;5.95;1.95;;;;;;;15.67;72.49;101419.22;5031834;28;20132;-56
2022/07/08 08:12:48;;;;;;;5.60;1.40;;;;;;;15.84;71.79;101414.88;5030923;28;20113;-57
2022/07/08 08:15:14;;;;;;;4.85;1.30;;;;;;;15.77;71.93;101407.91;5017443;28;20017;-57
2022/07/08 08:17:41;;;;;;;4.35;1.52;;;;;;;15.87;71.50;101416.28;5031149;28;20512;-57
2022/07/08 08:20:10;;;;;;;4.85;1.80;;;;;;;15.86;71.56;101421.91;5031058;28;20184;-56
2022/07/08 08:22:36;;;;;;;5.97;1.77;;;;;;;15.75;71.79;101416.22;5031756;28;20029;-57
2022/07/08 08:25:02;;;;;;;9.82;2.03;;;;;;;15.63;72.24;101417.19;5030901;28;20078;-57
2022/07/08 08:27:29;;;;;;;4.97;1.42;;;;;;;15.73;71.66;101422.91;5013616;28;20025;-57
2022/07/08 08:29:55;;;;;;;4.32;1.67;;;;;;;15.83;71.58;101424.03;5011910;28;20033;-57
2022/07/08 08:32:22;;;;;;;2.80;1.55;;;;;;;15.91;71.00;101425.56;5031804;28;20037;-57
2022/07/08 08:34:48;;;;;;;4.68;1.48;;;;;;;15.88;71.26;101426.03;5030502;28;20022;-57
2022/07/08 08:37:14;;;;;;;2.92;1.50;;;;;;;15.58;72.39;101424.06;5031300;28;20652;-57
2022/07/08 08:39:41;;;;;;;2.42;1.50;;;;;;;15.59;72.29;101423.00;5030725;28;20057;-57
2022/07/08 08:42:07;;;;;;;5.10;1.52;;;;;;;15.77;71.47;101432.19;5031480;28;20385;-57
2022/07/08 08:44:34;;;;;;;6.32;1.80;;;;;;;15.69;72.01;101429.78;5030446;28;20032;-57
2022/07/08 08:47:03;;;;;;;5.25;1.40;;;;;;;15.66;72.25;101428.38;5030179;28;20482;-57
2022/07/08 08:49:34;;;;;;;5.57;1.40;;;;;;;15.81;71.67;101427.97;5030351;28;20116;-58
2022/07/08 08:52:03;;;;;;;4.28;1.30;;;;;;;15.57;72.49;101424.28;5031691;28;20018;-57
2022/07/08 08:54:35;;;;;;;4.43;1.42;;;;;;;15.67;72.12;101424.63;5030388;28;20175;-57
2022/07/08 08:57:01;;;;;;;6.35;1.55;;;;;;;15.69;71.94;101429.78;5031321;28;20442;-57
2022/07/08 08:59:28;;;;;;;5.57;1.48;;;;;;;15.66;72.12;101422.16;5012755;28;20053;-57
2022/07/08 09:01:55;;;;;;;7.18;1.58;;;;;;;15.70;71.96;101417.94;5030348;28;20040;-57
2022/07/08 09:04:22;;;;;;;5.63;1.40;;;;;;;15.67;72.07;101429.22;5031407;28;20146;-57
2022/07/08 09:06:48;;;;;;;6.47;1.58;;;;;;;15.68;72.35;101426.28;5012487;28;20517;-57
2022/07/08 09:09:15;;;;;;;7.50;1.90;;;;;;;15.51;73.10;101426.00;5031303;28;20037;-57
2022/07/08 09:11:44;;;;;;;7.90;2.00;;;;;;;15.43;73.51;101423.59;5029795;28;20048;-57
2022/07/08 09:14:18;;;;;;;3.35;1.67;;;;;;;15.46;73.25;101428.56;5022475;28;20022;-57
2022/07/08 09:17:09;;;;;;;7.18;1.85;;;;;;;15.45;73.27;101439.59;5016146;28;20037;-57
2022/07/08 09:19:37;;;;;;;7.68;1.67;;;;;;;15.42;73.04;101438.13;5031344;28;20116;-57
2022/07/08 09:22:06;;;;;;;7.10;1.60;;;;;;;15.34;73.16;101435.75;5030287;28;20029;-57
2022/07/08 09:24:32;;;;;;;7.75;1.73;;;;;;;15.31;73.40;101433.47;5031267;28;20094;-57
2022/07/08 09:27:03;;;;;;;8.15;1.80;;;;;;;15.30;73.03;101434.53;5029537;28;20446;-57
2022/07/08 09:29:29;;;;;;;6.65;1.70;;;;;;;15.40;72.90;101429.47;5031243;28;20040;-57
2022/07/08 09:32:10;;;;;;;7.30;1.92;;;;;;;15.34;72.74;101427.66;5030236;28;20032;-57
2022/07/08 09:34:36;;;;;;;8.90;1.67;;;;;;;15.38;72.78;101430.72;5031363;28;20034;-56
2022/07/08 09:37:13;;;;;;;7.30;1.70;;;;;;;15.39;72.72;101422.41;5029984;28;20030;-57
2022/07/08 09:39:40;;;;;;;10.27;2.40;;;;;;;15.40;72.96;101418.66;5030089;28;20490;-57
2022/07/08 09:42:08;;;;;;;6.40;1.60;;;;;;;15.52;72.16;101410.66;5030987;28;20517;-57
2022/07/08 09:44:34;;;;;;;5.50;1.80;;;;;;;15.52;72.21;101411.47;5030052;28;20029;-57
2022/07/08 09:47:08;;;;;;;5.30;1.77;;;;;;;15.48;72.21;101404.03;5030593;28;20030;-57
2022/07/08 09:49:34;;;;;;;5.45;1.90;;;;;;;15.49;72.32;101413.78;5030728;28;20122;-57
2022/07/08 09:52:01;;;;;;;6.30;1.42;;;;;;;15.35;72.78;101415.00;5034553;28;20025;-57
2022/07/08 09:54:28;;;;;;;7.72;1.70;;;;;;;15.38;72.70;101401.03;5033284;28;20029;-57
2022/07/08 09:57:02;;;;;;;4.60;1.42;;;;;;;15.42;72.63;101408.47;5034480;28;20033;-57
2022/07/08 09:59:30;;;;;;;7.18;1.83;;;;;;;15.42;72.95;101402.25;5034010;28;20484;-57
2022/07/08 10:01:57;;;;;;;3.80;1.70;;;;;;;15.34;73.52;101403.38;5034477;28;20052;-57
2022/07/08 10:04:24;;;;;;;8.20;1.73;;;;;;;15.31;73.50;101395.72;5033308;28;20029;-57
2022/07/08 10:06:52;;;;;;;6.82;1.63;;;;;;;15.39;73.10;101400.84;5016465;28;20085;-57
2022/07/08 10:09:20;;;;;;;6.00;1.80;;;;;;;15.42;72.77;101397.69;5032854;28;20492;-57
2022/07/08 10:11:47;;;;;;;6.53;1.65;;;;;;;15.30;72.86;101392.19;5032866;28;20402;-57
2022/07/08 10:14:14;;;;;;;9.32;2.22;;;;;;;15.14;73.12;101397.34;5024972;28;20030;-56
2022/07/08 10:16:42;;;;;;;8.23;2.17;;;;;;;15.20;72.97;101396.47;5033111;28;20022;-57
2022/07/08 10:19:13;;;;;;;6.35;1.85;;;;;;;15.17;73.14;101399.63;5033682;28;20025;-57
2022/07/08 10:21:44;;;;;;;6.82;1.80;;;;;;;15.36;72.20;101403.97;5014637;28;20030;-57
2022/07/08 10:24:20;;;;;;;6.57;2.10;;;;;;;15.29;72.12;101405.91;5013959;28;20024;-57
2022/07/08 10:26:47;;;;;;;6.15;1.75;;;;;;;15.09;72.97;101397.19;5014014;28;20041;-57
2022/07/08 10:29:14;;;;;;;7.22;1.85;;;;;;;15.21;72.70;101404.34;5016345;28;20101;-57
2022/07/08 10:31:51;;;;;;;6.95;1.63;;;;;;;15.28;71.91;101406.97;5033943;28;20030;-56
2022/07/08 10:34:22;;;;;;;3.67;1.30;;;;;;;15.32;71.88;101417.09;5015336;28;20048;-57
2022/07/08 10:36:50;;;;;;;10.80;2.20;;;;;;;15.13;72.39;101423.50;5033438;28;20416;-57
2022/07/08 10:39:31;;;;;;;7.32;1.83;;;;;;;15.10;72.76;101420.41;5031524;28;20512;-56
2022/07/08 10:42:03;;;;;;;7.03;2.30;;;;;;;15.10;73.10;101428.50;5034133;28;20030;-56
2022/07/08 10:44:44;;;;;;;6.88;2.50;;;;;;;15.17;72.46;101424.72;5032728;28;20032;-58
2022/07/08 10:47:36;;;;;;;8.05;1.75;;;;;;;15.02;73.42;101422.34;5033295;28;20095;-56
2022/07/08 10:50:07;;;;;;;7.20;2.08;;;;;;;14.95;73.37;101426.97;5029037;28;20160;-57
2022/07/08 10:52:39;;;;;;;9.25;1.80;;;;;;;14.87;74.08;101423.72;5033643;28;20355;-57
2022/07/08 10:55:12;;;;;;;7.50;1.90;;;;;;;14.82;74.58;101420.84;5032412;28;20478;-57
2022/07/08 10:57:52;;;;;;;8.57;2.00;;;;;;;14.76;74.52;101428.78;5033490;28;20029;-57
2022/07/08 11:00:18;;;;;;;8.65;2.17;;;;;;;14.77;74.33;101430.44;5031244;28;20029;-57
2022/07/08 11:02:46;;;;;;;7.30;2.20;;;;;;;14.62;75.25;101429.13;5033347;28;20056;-58
2022/07/08 11:05:41;;;;;;;11.38;2.10;;;;;;;14.73;75.23;101425.72;5032573;28;20039;-58
2022/07/08 11:08:19;;;;;;;11.20;2.25;;;;;;;14.77;75.09;101424.25;5031277;28;20523;-58
2022/07/08 11:10:46;;;;;;;6.38;1.75;;;;;;;14.79;74.89;101422.97;5032845;28;20096;-58
2022/07/08 11:13:13;;;;;;;8.52;1.75;;;;;;;14.79;74.93;101422.97;5030444;28;20394;-58
2022/07/08 11:15:39;;;;;;;12.65;2.30;;;;;;;14.79;75.01;101428.34;5012997;28;20032;-58
2022/07/08 11:18:06;;;;;;;6.90;1.90;;;;;;;14.88;74.88;101431.63;5024775;28;20029;-58
2022/07/08 11:20:35;;;;;;;6.38;2.30;;;;;;;14.69;75.55;101433.41;5032923;28;20137;-58
2022/07/08 11:23:05;;;;;;;7.75;2.08;;;;;;;14.96;74.79;101442.09;5031622;28;20493;-58
2022/07/08 11:25:32;;;;;;;7.07;2.22;;;;;;;14.88;74.71;101442.41;5032456;28;20492;-58